Time;durP1;ratioP1;P1;durP2;ratioP2;P2;SDS_P1;SDS_P2;PMS_P1;PMS_P2;Temp;Humidity;BMP_temperature;BMP_pressure;BME280_temperature;BME280_humidity;BME280_pressure;Samples;Min_cycle;Max_cycle;Signal;HPM_P1;HPM_P2
2023/09/06 00:00:00;;;;;;;4.77;4.43;;;18.50;99.90;;;;;;5243998;28;20472;-46
2023/09/06 00:02:31;;;;;;;8.83;4.90;;;18.40;99.90;;;;;;5230894;28;20211;-44
2023/09/06 00:05:02;;;;;;;5.93;4.50;;;18.30;99.90;;;;;;5243494;28;20186;-45
2023/09/06 00:07:33;;;;;;;5.33;4.27;;;18.30;99.90;;;;;;5240179;28;21006;-44
2023/09/06 00:10:04;;;;;;;5.50;4.70;;;18.20;99.90;;;;;;5235986;28;20741;-44
2023/09/06 00:12:34;;;;;;;4.60;4.20;;;18.20;99.90;;;;;;5240644;28;20252;-45
2023/09/06 00:15:06;;;;;;;4.37;3.97;;;18.20;99.90;;;;;;5235878;28;20178;-45
2023/09/06 00:17:37;;;;;;;5.40;4.90;;;18.20;99.90;;;;;;5236580;28;20652;-45
2023/09/06 00:20:20;;;;;;;5.73;4.70;;;18.20;99.90;;;;;;5239807;28;20458;-46
2023/09/06 00:22:58;;;;;;;4.60;4.20;;;18.20;99.90;;;;;;5244031;28;20423;-45
2023/09/06 00:25:32;;;;;;;5.57;4.03;;;18.10;99.90;;;;;;5234531;28;20429;-44
2023/09/06 00:28:04;;;;;;;5.63;4.03;;;18.10;99.90;;;;;;5233074;28;20476;-45
2023/09/06 00:30:35;;;;;;;4.83;4.33;;;18.00;99.90;;;;;;5235677;28;20465;-44
2023/09/06 00:33:07;;;;;;;4.10;3.83;;;18.00;99.90;;;;;;5242618;28;20459;-44
2023/09/06 00:35:39;;;;;;;4.37;4.13;;;17.90;99.90;;;;;;5237359;28;20640;-45
2023/09/06 00:38:10;;;;;;;7.17;4.57;;;17.90;99.90;;;;;;5233110;28;20445;-44
2023/09/06 00:40:41;;;;;;;7.63;4.67;;;17.90;99.90;;;;;;5239832;28;20437;-44
2023/09/06 00:43:11;;;;;;;4.37;3.97;;;17.80;99.90;;;;;;5241541;28;20439;-46
2023/09/06 00:45:44;;;;;;;4.90;4.37;;;17.80;99.90;;;;;;5230105;28;20182;-44
2023/09/06 00:48:23;;;;;;;4.83;4.53;;;17.80;99.90;;;;;;5236626;28;20198;-44
2023/09/06 00:50:55;;;;;;;8.40;3.97;;;17.70;99.90;;;;;;5239992;28;20461;-44
2023/09/06 00:53:27;;;;;;;5.40;4.20;;;17.70;99.90;;;;;;5243140;28;20429;-44
2023/09/06 00:55:59;;;;;;;4.63;4.17;;;17.70;99.90;;;;;;5245682;28;20920;-44
2023/09/06 00:58:30;;;;;;;4.40;4.10;;;17.70;99.90;;;;;;5250698;28;20473;-44
2023/09/06 01:01:04;;;;;;;3.70;3.50;;;17.60;99.90;;;;;;5231797;28;20435;-45
2023/09/06 01:03:35;;;;;;;6.80;4.20;;;17.60;99.90;;;;;;5237794;28;20822;-46
2023/09/06 01:06:09;;;;;;;4.70;3.77;;;17.60;99.90;;;;;;5241155;28;20437;-45
2023/09/06 01:08:46;;;;;;;4.57;4.20;;;17.60;99.90;;;;;;5243053;28;20267;-45
2023/09/06 01:11:21;;;;;;;4.40;4.00;;;17.60;99.90;;;;;;5249042;28;20876;-45
2023/09/06 01:13:53;;;;;;;5.00;3.60;;;17.50;99.90;;;;;;5242797;28;20827;-45
2023/09/06 01:16:38;;;;;;;9.67;4.83;;;17.50;99.90;;;;;;5231426;28;20438;-44
2023/09/06 01:19:12;;;;;;;4.20;3.87;;;17.50;99.90;;;;;;5231339;28;20467;-45
2023/09/06 01:21:58;;;;;;;4.43;4.13;;;17.40;99.90;;;;;;5241981;28;20910;-45
2023/09/06 01:24:29;;;;;;;4.73;4.00;;;17.40;99.90;;;;;;5227714;28;20441;-45
2023/09/06 01:27:01;;;;;;;4.37;3.97;;;17.40;99.90;;;;;;5236273;28;20898;-46
2023/09/06 01:29:31;;;;;;;3.90;3.70;;;17.40;99.90;;;;;;5239908;28;20465;-44
2023/09/06 01:32:05;;;;;;;8.23;4.50;;;17.30;99.90;;;;;;5240350;28;20824;-45
2023/09/06 01:34:35;;;;;;;5.23;4.13;;;17.30;99.90;;;;;;5246865;28;20182;-45
2023/09/06 01:37:07;;;;;;;4.27;4.00;;;17.30;99.90;;;;;;5237012;28;20799;-45
2023/09/06 01:39:37;;;;;;;4.00;3.67;;;17.20;99.90;;;;;;5242239;28;20226;-44
2023/09/06 01:42:09;;;;;;;5.60;4.87;;;17.20;99.90;;;;;;5247049;28;20491;-46
2023/09/06 01:44:41;;;;;;;4.07;3.70;;;17.10;99.90;;;;;;5234273;28;20194;-44
2023/09/06 01:47:11;;;;;;;3.70;3.50;;;17.10;99.90;;;;;;5229927;28;20425;-45
2023/09/06 01:49:45;;;;;;;4.37;4.07;;;17.10;99.90;;;;;;5239483;28;20460;-45
2023/09/06 01:52:15;;;;;;;10.03;3.93;;;17.10;99.90;;;;;;5241240;28;20195;-44
2023/09/06 01:54:46;;;;;;;5.77;4.70;;;17.10;99.90;;;;;;5237369;28;20437;-43
2023/09/06 01:57:17;;;;;;;3.93;3.57;;;17.10;99.90;;;;;;5232074;28;20229;-45
2023/09/06 01:59:50;;;;;;;4.50;3.90;;;17.20;99.90;;;;;;5236038;28;20558;-45
2023/09/06 02:02:21;;;;;;;4.53;4.00;;;17.10;99.90;;;;;;5242698;28;20256;-43
2023/09/06 02:04:51;;;;;;;4.07;3.73;;;17.00;99.90;;;;;;5240838;28;20424;-43
2023/09/06 02:07:23;;;;;;;4.80;3.70;;;17.00;99.90;;;;;;5230803;28;20195;-45
2023/09/06 02:09:55;;;;;;;5.20;4.30;;;17.00;99.90;;;;;;5217185;28;20202;-45
2023/09/06 02:12:26;;;;;;;8.93;4.43;;;16.90;99.90;;;;;;5233445;28;20926;-45
2023/09/06 02:14:56;;;;;;;4.30;4.00;;;16.90;99.90;;;;;;5242896;28;20444;-45
2023/09/06 02:17:27;;;;;;;9.00;4.47;;;16.90;99.90;;;;;;5241352;28;20232;-46
2023/09/06 02:20:01;;;;;;;5.07;4.33;;;16.90;99.90;;;;;;5239090;28;20222;-44
2023/09/06 02:22:31;;;;;;;4.90;4.43;;;16.90;99.90;;;;;;5242097;28;20206;-45
2023/09/06 02:25:02;;;;;;;5.90;5.13;;;16.90;99.90;;;;;;5241321;28;20432;-44
2023/09/06 02:27:33;;;;;;;7.43;5.00;;;16.90;99.90;;;;;;5239474;28;20187;-44
2023/09/06 02:30:05;;;;;;;6.50;4.20;;;16.80;99.90;;;;;;5232405;28;20494;-45
2023/09/06 02:32:36;;;;;;;5.03;4.57;;;16.80;99.90;;;;;;5241576;28;20496;-45
2023/09/06 02:35:07;;;;;;;4.47;4.17;;;16.80;99.90;;;;;;5246963;28;20501;-45
2023/09/06 02:37:38;;;;;;;6.47;4.70;;;16.80;99.90;;;;;;5234961;28;20176;-45
2023/09/06 02:40:14;;;;;;;9.43;4.60;;;16.80;99.90;;;;;;5233697;28;20807;-46
2023/09/06 02:42:51;;;;;;;5.60;4.37;;;16.80;99.90;;;;;;5238539;28;20170;-45
2023/09/06 02:45:22;;;;;;;6.00;4.30;;;16.80;99.90;;;;;;5241861;28;20448;-45
2023/09/06 02:47:53;;;;;;;7.20;4.53;;;16.70;99.90;;;;;;5241603;28;20936;-45
2023/09/06 02:50:23;;;;;;;5.73;5.23;;;16.70;99.90;;;;;;5238152;28;20508;-45
2023/09/06 02:52:56;;;;;;;5.27;4.87;;;16.70;99.90;;;;;;5233906;28;20181;-44
2023/09/06 02:55:27;;;;;;;5.07;4.57;;;16.70;99.90;;;;;;5256373;28;20265;-44
2023/09/06 02:57:57;;;;;;;5.07;4.70;;;16.70;99.90;;;;;;5237255;28;20574;-45
2023/09/06 03:00:29;;;;;;;5.33;4.80;;;16.60;99.90;;;;;;5229523;28;20437;-44
2023/09/06 03:03:06;;;;;;;7.13;5.10;;;16.60;99.90;;;;;;5241253;28;20508;-44
2023/09/06 03:05:44;;;;;;;8.00;4.80;;;16.60;99.90;;;;;;5233003;28;20421;-45
2023/09/06 03:08:14;;;;;;;12.30;5.47;;;16.60;99.90;;;;;;5237108;28;20453;-44
2023/09/06 03:10:45;;;;;;;6.27;5.40;;;16.50;99.90;;;;;;5236758;28;20456;-44
2023/09/06 03:13:16;;;;;;;5.47;5.07;;;16.50;99.90;;;;;;5229154;28;20180;-43
2023/09/06 03:15:51;;;;;;;5.73;5.23;;;16.50;99.90;;;;;;5239692;28;20270;-44
2023/09/06 03:18:22;;;;;;;5.63;5.00;;;16.40;99.90;;;;;;5230844;28;20453;-44
2023/09/06 03:20:55;;;;;;;12.50;5.63;;;16.40;99.90;;;;;;5230613;28;20809;-45
2023/09/06 03:23:25;;;;;;;6.33;5.00;;;16.30;99.90;;;;;;5238240;28;20425;-45
2023/09/06 03:25:57;;;;;;;8.33;5.50;;;16.30;99.90;;;;;;5234683;28;20428;-45
2023/09/06 03:28:28;;;;;;;5.80;4.53;;;16.30;99.90;;;;;;5231177;28;20687;-46
2023/09/06 03:30:59;;;;;;;10.20;6.10;;;16.20;99.90;;;;;;5230616;28;20453;-45
2023/09/06 03:33:31;;;;;;;6.43;5.80;;;16.20;99.90;;;;;;5240602;28;20183;-46
2023/09/06 03:36:07;;;;;;;5.80;5.40;;;16.20;99.90;;;;;;5251288;28;20646;-44
2023/09/06 03:38:38;;;;;;;6.90;6.00;;;16.20;99.90;;;;;;5244297;28;20468;-45
2023/09/06 03:41:09;;;;;;;5.03;4.73;;;16.20;99.90;;;;;;5232045;28;20476;-45
2023/09/06 03:43:40;;;;;;;13.30;5.30;;;16.10;99.90;;;;;;5239879;28;20178;-46
2023/09/06 03:46:13;;;;;;;5.87;5.23;;;16.10;99.90;;;;;;5250181;28;21050;-45
2023/09/06 03:48:45;;;;;;;11.60;5.50;;;16.10;99.90;;;;;;5246347;28;20213;-45
2023/09/06 03:51:17;;;;;;;12.37;5.27;;;16.10;99.90;;;;;;5243427;28;20500;-44
2023/09/06 03:53:47;;;;;;;7.83;4.90;;;16.00;99.90;;;;;;5238867;28;20516;-45
2023/09/06 03:56:19;;;;;;;5.53;5.13;;;16.00;99.90;;;;;;5235088;28;20513;-45
2023/09/06 03:58:53;;;;;;;8.60;5.77;;;16.00;99.90;;;;;;5241090;28;20681;-45
2023/09/06 04:01:25;;;;;;;8.53;6.00;;;16.00;99.90;;;;;;5231417;28;20444;-44
2023/09/06 04:03:57;;;;;;;6.20;5.70;;;15.90;99.90;;;;;;5239392;28;20436;-45
2023/09/06 04:06:30;;;;;;;6.53;5.80;;;15.90;99.90;;;;;;5241819;28;20468;-45
2023/09/06 04:09:01;;;;;;;7.00;5.60;;;15.90;99.90;;;;;;5237824;28;20487;-45
2023/09/06 04:11:32;;;;;;;7.53;6.20;;;15.90;99.90;;;;;;5234542;28;20543;-44
2023/09/06 04:14:03;;;;;;;6.37;5.77;;;15.90;99.90;;;;;;5238694;28;20458;-44
2023/09/06 04:16:37;;;;;;;14.03;7.10;;;15.80;99.90;;;;;;5234726;28;20176;-45
2023/09/06 04:19:07;;;;;;;6.27;5.77;;;15.80;99.90;;;;;;5229470;28;20453;-45
2023/09/06 04:21:40;;;;;;;5.50;5.20;;;15.80;99.90;;;;;;5239565;28;20435;-45
2023/09/06 04:24:11;;;;;;;12.57;5.93;;;15.80;99.90;;;;;;5248687;28;20646;-45
2023/09/06 04:26:41;;;;;;;6.67;5.40;;;15.80;99.90;;;;;;5246261;28;20424;-43
2023/09/06 04:29:12;;;;;;;6.60;6.07;;;15.80;99.90;;;;;;5231870;28;20215;-45
2023/09/06 04:31:44;;;;;;;9.43;5.43;;;15.80;99.90;;;;;;5246127;28;20277;-43
2023/09/06 04:34:14;;;;;;;6.03;5.33;;;15.80;99.90;;;;;;5241700;28;20183;-44
2023/09/06 04:36:45;;;;;;;12.03;7.23;;;15.80;99.90;;;;;;5247617;28;20451;-45
2023/09/06 04:39:17;;;;;;;7.50;6.73;;;15.80;99.90;;;;;;5244325;28;20230;-45
2023/09/06 04:41:47;;;;;;;8.70;5.93;;;15.80;99.90;;;;;;5244091;28;20241;-44
2023/09/06 04:44:18;;;;;;;5.70;5.20;;;15.80;99.90;;;;;;5242836;28;20429;-45
2023/09/06 04:46:48;;;;;;;6.80;6.20;;;15.80;99.90;;;;;;5247148;28;20778;-45
2023/09/06 04:49:21;;;;;;;8.30;5.60;;;15.80;99.90;;;;;;5241570;28;20214;-44
2023/09/06 04:51:52;;;;;;;11.27;6.00;;;15.80;99.90;;;;;;5240645;28;20195;-45
2023/09/06 04:54:23;;;;;;;5.60;5.10;;;15.80;99.90;;;;;;5232226;28;20439;-44
2023/09/06 04:56:53;;;;;;;6.30;5.80;;;15.90;99.90;;;;;;5238672;28;20788;-44
2023/09/06 04:59:24;;;;;;;6.73;6.23;;;15.90;99.90;;;;;;5239514;28;20210;-44
2023/09/06 05:01:55;;;;;;;6.60;5.70;;;16.00;99.90;;;;;;5244195;28;20185;-44
2023/09/06 05:04:25;;;;;;;6.93;6.23;;;16.00;99.90;;;;;;5238110;28;20205;-47
2023/09/06 05:06:56;;;;;;;7.47;5.70;;;16.10;99.90;;;;;;5234540;28;20639;-45
2023/09/06 05:09:27;;;;;;;6.53;5.93;;;16.10;99.90;;;;;;5243723;28;20203;-45
2023/09/06 05:11:57;;;;;;;7.93;6.20;;;16.20;99.90;;;;;;5237737;28;20590;-45
2023/09/06 05:14:29;;;;;;;11.63;6.33;;;16.40;99.90;;;;;;5238766;28;20174;-46
2023/09/06 05:17:00;;;;;;;6.97;5.87;;;16.50;99.90;;;;;;5237053;28;20171;-46
2023/09/06 05:19:32;;;;;;;8.03;5.70;;;16.60;99.90;;;;;;5239880;28;20956;-45
2023/09/06 05:22:03;;;;;;;6.83;6.30;;;16.60;99.90;;;;;;5236157;28;20266;-45
2023/09/06 05:24:34;;;;;;;7.60;6.90;;;16.70;99.90;;;;;;5238255;28;20602;-44
2023/09/06 05:27:04;;;;;;;9.87;6.00;;;16.80;99.90;;;;;;5234671;28;20182;-45
2023/09/06 05:29:35;;;;;;;11.90;5.80;;;16.90;99.90;;;;;;5238321;28;20256;-46
2023/09/06 05:32:06;;;;;;;7.27;6.37;;;16.90;99.90;;;;;;5243192;28;21617;-45
2023/09/06 05:34:36;;;;;;;9.40;6.13;;;17.00;99.90;;;;;;5228279;28;20193;-45
2023/09/06 05:37:08;;;;;;;17.07;6.10;;;17.00;99.90;;;;;;5233126;28;20594;-45
2023/09/06 05:39:39;;;;;;;6.80;5.40;;;17.10;99.90;;;;;;5232766;28;20203;-46
2023/09/06 05:42:10;;;;;;;11.87;6.40;;;17.10;99.90;;;;;;5233169;28;20809;-46
2023/09/06 05:44:40;;;;;;;9.20;6.53;;;17.20;99.90;;;;;;5229083;28;20201;-45
2023/09/06 05:47:11;;;;;;;11.80;6.57;;;17.20;99.90;;;;;;5239531;28;20622;-45
2023/09/06 05:49:42;;;;;;;8.07;7.27;;;17.30;99.90;;;;;;5232600;28;20214;-45
2023/09/06 05:52:13;;;;;;;8.87;5.93;;;17.50;99.90;;;;;;5238394;28;20233;-44
2023/09/06 05:54:44;;;;;;;8.80;6.70;;;18.50;99.90;;;;;;5232068;28;20429;-45
2023/09/06 05:57:15;;;;;;;10.37;5.90;;;20.80;99.90;;;;;;5231670;28;20655;-45
2023/09/06 05:59:46;;;;;;;6.17;4.63;;;23.40;99.90;;;;;;5233378;28;20460;-44
2023/09/06 06:02:17;;;;;;;11.83;3.90;;;25.50;98.70;;;;;;5248734;28;20191;-44
2023/09/06 06:04:47;;;;;;;5.47;4.93;;;27.50;91.90;;;;;;5237013;28;20273;-45
2023/09/06 06:07:19;;;;;;;5.77;5.20;;;29.30;74.50;;;;;;5234647;28;20578;-46
2023/09/06 06:09:50;;;;;;;10.33;4.77;;;30.90;61.50;;;;;;5234138;28;20220;-45
2023/09/06 06:12:22;;;;;;;5.57;4.23;;;31.80;55.70;;;;;;5233400;28;20481;-44
2023/09/06 06:14:53;;;;;;;4.90;4.20;;;32.90;50.50;;;;;;5237351;28;20178;-44
2023/09/06 06:17:23;;;;;;;9.97;5.03;;;33.70;47.50;;;;;;5232628;28;20775;-50
2023/09/06 06:19:54;;;;;;;4.80;4.40;;;33.80;46.20;;;;;;5234865;28;20206;-44
2023/09/06 06:22:25;;;;;;;4.57;4.17;;;34.40;45.00;;;;;;5228083;28;20198;-45
2023/09/06 06:25:00;;;;;;;4.60;4.20;;;34.80;43.10;;;;;;5232671;28;20182;-45
2023/09/06 06:27:31;;;;;;;5.77;4.40;;;35.50;41.90;;;;;;5232557;28;20194;-46
2023/09/06 06:30:05;;;;;;;4.90;4.50;;;36.30;39.90;;;;;;5243228;28;20233;-45
2023/09/06 06:32:36;;;;;;;11.33;4.90;;;36.90;38.20;;;;;;5233071;28;20217;-45
2023/09/06 06:35:08;;;;;;;5.00;4.50;;;36.60;38.10;;;;;;5236867;28;20453;-45
2023/09/06 06:37:39;;;;;;;9.63;4.60;;;36.50;38.10;;;;;;5233961;28;20575;-45
2023/09/06 06:40:10;;;;;;;5.50;3.90;;;36.70;37.20;;;;;;5232080;28;20216;-45
2023/09/06 06:42:41;;;;;;;11.07;4.50;;;35.80;38.00;;;;;;5231784;28;20262;-44
2023/09/06 06:45:11;;;;;;;4.87;4.57;;;35.90;37.70;;;;;;5237365;28;20676;-43
2023/09/06 06:47:42;;;;;;;6.70;4.63;;;35.90;37.80;;;;;;5240157;28;20268;-45
2023/09/06 06:50:13;;;;;;;4.90;4.33;;;36.50;37.10;;;;;;5242045;28;20185;-45
2023/09/06 06:52:44;;;;;;;7.17;4.10;;;37.60;35.90;;;;;;5214379;28;20213;-45
2023/09/06 06:55:15;;;;;;;3.95;3.63;;;38.50;34.50;;;;;;5230993;28;20645;-45
2023/09/06 06:57:46;;;;;;;4.65;4.22;;;39.10;33.70;;;;;;5237967;28;20184;-45
2023/09/06 07:00:17;;;;;;;12.85;5.05;;;39.80;32.20;;;;;;5240236;28;20277;-45
2023/09/06 07:02:48;;;;;;;5.18;3.88;;;39.70;31.60;;;;;;5235309;28;20269;-47
2023/09/06 07:05:18;;;;;;;4.97;3.80;;;39.80;32.10;;;;;;5235187;28;20186;-44
2023/09/06 07:07:49;;;;;;;7.65;4.78;;;40.20;31.00;;;;;;5244478;28;20209;-45
2023/09/06 07:10:21;;;;;;;4.72;4.40;;;40.50;30.60;;;;;;5252246;28;20220;-45
2023/09/06 07:12:51;;;;;;;4.50;4.13;;;40.40;30.80;;;;;;5234549;28;20262;-44
2023/09/06 07:15:22;;;;;;;7.00;4.63;;;40.60;30.40;;;;;;5238205;28;20190;-45
2023/09/06 07:17:53;;;;;;;6.53;4.75;;;41.10;29.70;;;;;;5242421;28;20182;-44
2023/09/06 07:20:23;;;;;;;16.52;4.60;;;40.40;29.80;;;;;;5236437;28;20197;-47
2023/09/06 07:22:54;;;;;;;13.68;5.43;;;39.70;30.80;;;;;;5237971;28;20182;-45
2023/09/06 07:25:25;;;;;;;4.35;4.05;;;40.00;30.60;;;;;;5237936;28;20543;-44
2023/09/06 07:27:57;;;;;;;6.40;4.53;;;40.40;30.00;;;;;;5234042;28;20174;-45
2023/09/06 07:30:28;;;;;;;6.68;5.05;;;40.90;29.70;;;;;;5233095;28;20184;-44
2023/09/06 07:32:59;;;;;;;5.05;4.55;;;41.40;29.10;;;;;;5241220;28;20182;-45
2023/09/06 07:35:29;;;;;;;4.68;4.35;;;41.60;29.10;;;;;;5242543;28;20182;-45
2023/09/06 07:38:00;;;;;;;8.25;4.55;;;40.40;29.20;;;;;;5236839;28;20769;-46
2023/09/06 07:40:31;;;;;;;5.47;4.72;;;40.10;29.40;;;;;;5233925;28;20193;-45
2023/09/06 07:43:03;;;;;;;8.98;4.07;;;39.90;29.50;;;;;;5226188;28;20191;-46
2023/09/06 07:45:35;;;;;;;6.68;4.53;;;40.10;29.60;;;;;;5241342;28;20174;-45
2023/09/06 07:48:06;;;;;;;6.22;5.63;;;40.10;29.60;;;;;;5237193;28;20229;-44
2023/09/06 07:50:36;;;;;;;4.93;4.28;;;40.50;29.50;;;;;;5241203;28;20213;-46
2023/09/06 07:53:07;;;;;;;6.57;4.30;;;40.80;29.20;;;;;;5242317;28;20220;-45
2023/09/06 07:55:37;;;;;;;8.45;5.45;;;40.80;29.10;;;;;;5242175;28;20177;-46
2023/09/06 07:58:08;;;;;;;11.55;5.95;;;40.40;29.40;;;;;;5234178;28;20214;-44
2023/09/06 08:00:39;;;;;;;5.97;4.55;;;39.50;29.80;;;;;;5233097;28;20274;-46
2023/09/06 08:03:10;;;;;;;8.88;5.53;;;39.00;30.20;;;;;;5243277;28;20186;-44
2023/09/06 08:05:41;;;;;;;9.85;6.07;;;38.30;30.00;;;;;;5243743;28;20719;-43
2023/09/06 08:08:12;;;;;;;4.40;4.00;;;37.60;31.40;;;;;;5238613;28;20202;-44
2023/09/06 08:10:42;;;;;;;13.83;5.43;;;36.50;32.80;;;;;;5240139;28;20179;-44
2023/09/06 08:13:13;;;;;;;9.60;5.43;;;35.70;34.00;;;;;;5242608;28;20186;-44
2023/09/06 08:15:44;;;;;;;14.53;7.10;;;35.10;35.50;;;;;;5243525;28;20221;-45
2023/09/06 08:18:14;;;;;;;6.90;5.10;;;34.50;36.70;;;;;;5246199;28;20201;-44
2023/09/06 08:20:45;;;;;;;10.77;5.27;;;33.50;37.10;;;;;;5237420;28;20829;-43
2023/09/06 08:23:15;;;;;;;10.83;5.27;;;32.40;38.80;;;;;;5236646;28;20189;-44
2023/09/06 08:25:47;;;;;;;7.33;4.60;;;31.00;41.40;;;;;;5239294;28;20278;-47
2023/09/06 08:28:18;;;;;;;5.80;4.63;;;30.00;42.50;;;;;;5243245;28;20255;-45
2023/09/06 08:30:49;;;;;;;8.00;4.90;;;28.80;45.20;;;;;;5237931;28;20797;-46
2023/09/06 08:33:20;;;;;;;5.43;4.00;;;28.00;46.90;;;;;;5240994;28;20460;-44
2023/09/06 08:35:51;;;;;;;8.33;5.20;;;27.80;47.60;;;;;;5238471;28;20444;-43
2023/09/06 08:38:21;;;;;;;9.63;5.20;;;27.40;48.30;;;;;;5234284;28;20203;-44
2023/09/06 08:40:52;;;;;;;7.60;5.63;;;26.80;49.20;;;;;;5244256;28;20178;-44
2023/09/06 08:43:28;;;;;;;15.73;4.70;;;26.30;50.40;;;;;;5237652;28;20186;-44
2023/09/06 08:46:00;;;;;;;5.63;5.00;;;26.00;50.70;;;;;;5241558;28;20269;-44
2023/09/06 08:48:32;;;;;;;5.50;4.03;;;25.70;51.30;;;;;;5237038;28;20925;-44
2023/09/06 08:51:05;;;;;;;6.70;4.50;;;25.60;51.50;;;;;;5241064;28;20594;-45
2023/09/06 08:53:39;;;;;;;5.00;4.17;;;25.50;51.60;;;;;;5244982;28;20425;-44
2023/09/06 08:56:10;;;;;;;4.30;4.00;;;25.40;52.00;;;;;;5237699;28;20453;-46
2023/09/06 08:58:41;;;;;;;5.37;4.63;;;25.40;52.60;;;;;;5236899;28;20543;-46
2023/09/06 09:01:11;;;;;;;5.70;5.10;;;25.30;53.10;;;;;;5240608;28;20523;-46
2023/09/06 09:03:42;;;;;;;4.83;4.10;;;25.30;53.10;;;;;;5236740;28;20242;-44
2023/09/06 09:06:13;;;;;;;7.17;4.33;;;25.40;52.20;;;;;;5239151;28;20603;-45
2023/09/06 09:08:43;;;;;;;4.07;3.77;;;25.50;52.40;;;;;;5236544;28;20289;-44
2023/09/06 09:11:18;;;;;;;10.40;4.37;;;25.60;52.50;;;;;;5239476;28;20220;-44
2023/09/06 09:13:49;;;;;;;8.13;4.33;;;25.70;51.30;;;;;;5235161;28;20189;-46
2023/09/06 09:16:22;;;;;;;7.60;4.73;;;25.60;51.60;;;;;;5232733;28;20524;-45
2023/09/06 09:18:52;;;;;;;4.10;3.67;;;25.50;52.30;;;;;;5233439;28;21548;-44
2023/09/06 09:21:23;;;;;;;5.57;3.83;;;25.50;52.90;;;;;;5239843;28;20571;-45
2023/09/06 09:23:55;;;;;;;3.37;3.10;;;25.60;52.60;;;;;;5240894;28;20190;-47
2023/09/06 09:26:26;;;;;;;4.07;3.60;;;25.70;52.10;;;;;;5234680;28;20186;-49
2023/09/06 09:29:01;;;;;;;4.10;3.80;;;25.80;52.70;;;;;;5238360;28;21003;-47
2023/09/06 09:31:32;;;;;;;5.97;4.60;;;25.90;52.20;;;;;;5239144;28;20214;-47
2023/09/06 09:34:02;;;;;;;4.30;3.03;;;25.90;51.60;;;;;;5236565;28;20496;-45
2023/09/06 09:36:38;;;;;;;4.53;4.10;;;25.80;51.40;;;;;;5234468;28;20993;-47
2023/09/06 09:39:10;;;;;;;5.30;4.20;;;25.60;51.30;;;;;;5227347;28;20573;-45
2023/09/06 09:41:44;;;;;;;11.30;4.50;;;25.50;51.60;;;;;;5234287;28;20489;-46
2023/09/06 09:44:15;;;;;;;4.33;3.93;;;25.40;52.40;;;;;;5231572;28;20959;-47
2023/09/06 09:46:46;;;;;;;4.27;3.87;;;25.40;52.50;;;;;;5229146;28;20613;-46
2023/09/06 09:49:20;;;;;;;13.07;3.97;;;25.40;52.40;;;;;;5233439;28;20460;-44
2023/09/06 09:51:50;;;;;;;5.53;3.93;;;25.60;52.50;;;;;;5237321;28;20468;-43
2023/09/06 09:54:24;;;;;;;3.60;3.27;;;25.60;52.20;;;;;;5232794;28;20441;-44
2023/09/06 09:57:06;;;;;;;4.53;3.73;;;25.70;51.90;;;;;;5231881;28;20197;-45
2023/09/06 09:59:38;;;;;;;4.33;3.97;;;25.60;52.40;;;;;;5229466;28;20522;-45
2023/09/06 10:02:15;;;;;;;7.23;3.67;;;25.50;53.20;;;;;;5239756;28;20440;-45
2023/09/06 10:04:49;;;;;;;4.30;3.80;;;25.60;53.40;;;;;;5234605;28;20428;-44
2023/09/06 10:07:20;;;;;;;3.40;3.30;;;25.80;53.70;;;;;;5231904;28;20467;-45
2023/09/06 10:09:53;;;;;;;8.20;4.03;;;25.90;52.90;;;;;;5229100;28;20460;-45
2023/09/06 10:12:25;;;;;;;4.50;4.10;;;26.00;51.90;;;;;;5232004;28;20476;-46
2023/09/06 10:14:57;;;;;;;7.63;4.17;;;26.10;50.90;;;;;;5232931;28;20461;-44
2023/09/06 10:17:29;;;;;;;7.90;3.90;;;26.10;52.00;;;;;;5233116;28;20435;-44
2023/09/06 10:19:59;;;;;;;4.57;4.23;;;26.20;51.00;;;;;;5231543;28;20460;-44
2023/09/06 10:22:31;;;;;;;4.93;4.10;;;26.20;51.20;;;;;;5231657;28;20441;-44
2023/09/06 10:25:06;;;;;;;5.77;3.20;;;26.30;51.90;;;;;;5234991;28;20198;-49
2023/09/06 10:27:50;;;;;;;3.80;3.50;;;26.40;51.60;;;;;;5229572;28;20432;-50
2023/09/06 10:30:28;;;;;;;3.40;3.20;;;26.40;51.10;;;;;;5227572;28;20487;-49
2023/09/06 10:32:59;;;;;;;3.37;3.10;;;26.30;49.80;;;;;;5229556;28;22106;-48
2023/09/06 10:35:31;;;;;;;8.90;3.60;;;26.20;49.80;;;;;;5233356;28;20436;-49
2023/09/06 10:38:10;;;;;;;4.47;3.60;;;26.10;50.40;;;;;;5229594;28;20249;-49
2023/09/06 10:40:47;;;;;;;5.80;4.23;;;26.20;51.20;;;;;;5230981;28;20444;-50
2023/09/06 10:43:43;;;;;;;3.90;3.60;;;26.20;52.10;;;;;;5231631;28;20952;-49
2023/09/06 10:46:13;;;;;;;4.10;3.67;;;26.20;51.50;;;;;;5227643;28;20441;-49
2023/09/06 10:49:12;;;;;;;2.47;2.30;;;26.30;52.10;;;;;;5230548;28;20497;-50
2023/09/06 10:52:03;;;;;;;8.20;4.30;;;26.30;51.50;;;;;;5221090;28;20595;-49
2023/09/06 10:54:44;;;;;;;5.83;4.07;;;26.40;51.40;;;;;;5233479;28;20461;-49
2023/09/06 10:57:15;;;;;;;3.90;3.50;;;26.40;51.90;;;;;;5234038;28;20432;-50
2023/09/06 11:00:12;;;;;;;3.97;3.63;;;26.30;51.30;;;;;;5228815;28;21030;-49
2023/09/06 11:02:44;;;;;;;3.90;3.70;;;26.40;51.60;;;;;;5234334;28;20535;-50
2023/09/06 11:05:32;;;;;;;3.43;3.13;;;26.40;51.60;;;;;;5237672;28;20919;-50
2023/09/06 11:08:04;;;;;;;4.57;3.90;;;26.50;51.80;;;;;;5235898;28;20480;-50
2023/09/06 11:10:35;;;;;;;4.70;3.43;;;26.60;50.80;;;;;;5232218;28;20436;-49
2023/09/06 11:13:15;;;;;;;3.60;3.30;;;26.60;48.60;;;;;;5231239;28;20516;-49
2023/09/06 11:15:48;;;;;;;3.70;3.37;;;26.40;48.30;;;;;;5234618;28;20508;-50
2023/09/06 11:18:19;;;;;;;3.90;3.60;;;26.40;48.60;;;;;;5249358;28;20461;-50
2023/09/06 11:20:50;;;;;;;3.30;3.10;;;26.50;47.90;;;;;;5256110;28;20509;-50
2023/09/06 11:23:22;;;;;;;3.03;2.73;;;26.40;48.70;;;;;;5230948;28;20516;-49
2023/09/06 11:26:00;;;;;;;5.60;3.50;;;26.50;49.70;;;;;;5241160;28;20190;-50
2023/09/06 11:28:33;;;;;;;3.37;3.17;;;26.60;50.20;;;;;;5239079;28;20837;-50
2023/09/06 11:31:05;;;;;;;5.33;3.70;;;26.70;50.30;;;;;;5230431;28;20785;-49
2023/09/06 11:33:36;;;;;;;10.60;3.53;;;26.90;50.40;;;;;;5235516;28;20438;-49
2023/09/06 11:36:11;;;;;;;3.47;3.17;;;27.10;49.20;;;;;;5232110;28;20958;-50
2023/09/06 11:38:43;;;;;;;5.73;4.03;;;27.10;48.90;;;;;;5234030;28;20995;-50
2023/09/06 11:41:15;;;;;;;3.80;3.07;;;27.20;48.20;;;;;;5233127;28;20874;-49
2023/09/06 11:43:48;;;;;;;3.70;3.20;;;27.10;46.70;;;;;;5232420;28;20449;-51
2023/09/06 11:46:20;;;;;;;3.17;3.07;;;27.00;45.60;;;;;;5236328;28;20464;-50
2023/09/06 11:48:53;;;;;;;2.83;2.60;;;26.90;46.80;;;;;;5235848;28;20915;-50
2023/09/06 11:51:25;;;;;;;4.90;3.63;;;26.80;47.70;;;;;;5232711;28;20456;-50
2023/09/06 11:54:00;;;;;;;3.70;3.10;;;26.90;47.90;;;;;;5232556;28;20609;-49
2023/09/06 11:56:33;;;;;;;3.00;2.77;;;27.00;47.50;;;;;;5239996;28;20943;-50
2023/09/06 11:59:07;;;;;;;9.00;2.60;;;27.00;47.70;;;;;;5234724;28;20468;-49
2023/09/06 12:01:43;;;;;;;3.70;3.43;;;27.00;47.40;;;;;;5235417;28;20819;-49
2023/09/06 12:04:16;;;;;;;5.43;3.30;;;27.10;46.90;;;;;;5237575;28;20943;-50
2023/09/06 12:06:51;;;;;;;5.07;3.20;;;27.20;47.80;;;;;;5238436;28;20450;-44
2023/09/06 12:09:23;;;;;;;3.60;2.87;;;27.20;48.70;;;;;;5236801;28;20465;-47
2023/09/06 12:11:54;;;;;;;6.40;3.00;;;27.20;47.70;;;;;;5238991;28;20492;-44
2023/09/06 12:14:26;;;;;;;3.40;3.10;;;27.30;46.60;;;;;;5235829;28;20801;-49
2023/09/06 12:16:57;;;;;;;3.73;3.43;;;27.40;46.70;;;;;;5234602;28;20470;-49
2023/09/06 12:19:27;;;;;;;3.90;3.67;;;27.50;46.80;;;;;;5233768;28;20456;-49
2023/09/06 12:21:59;;;;;;;3.67;3.10;;;27.50;46.70;;;;;;5234485;28;20190;-50
2023/09/06 12:24:29;;;;;;;4.87;2.93;;;27.60;46.70;;;;;;5235294;28;20281;-50
2023/09/06 12:27:00;;;;;;;3.13;2.90;;;27.70;45.80;;;;;;5233051;28;20502;-50
2023/09/06 12:29:31;;;;;;;3.43;3.13;;;27.70;45.90;;;;;;5228699;28;20207;-49
2023/09/06 12:32:04;;;;;;;5.20;3.17;;;27.70;45.70;;;;;;5236376;28;20218;-51
2023/09/06 12:34:35;;;;;;;2.50;2.30;;;27.60;46.10;;;;;;5232343;28;20271;-50
2023/09/06 12:37:06;;;;;;;2.80;2.27;;;27.60;46.10;;;;;;5232377;28;20833;-49
2023/09/06 12:39:36;;;;;;;3.00;2.80;;;27.60;44.00;;;;;;5234069;28;20767;-50
2023/09/06 12:42:07;;;;;;;2.50;2.40;;;27.50;44.30;;;;;;5234079;28;20230;-50
2023/09/06 12:44:38;;;;;;;5.07;2.80;;;27.60;44.90;;;;;;5232679;28;20236;-52
2023/09/06 12:47:08;;;;;;;2.93;2.67;;;27.60;45.10;;;;;;5235116;28;20190;-50
2023/09/06 12:49:39;;;;;;;3.17;2.97;;;27.60;45.30;;;;;;5237884;28;20681;-50
2023/09/06 12:52:10;;;;;;;3.40;3.10;;;27.60;45.70;;;;;;5230872;28;20202;-49
2023/09/06 12:54:41;;;;;;;3.73;3.27;;;27.50;45.70;;;;;;5228488;28;20183;-50
2023/09/06 12:57:11;;;;;;;2.33;2.20;;;27.50;45.70;;;;;;5231533;28;20448;-49
2023/09/06 12:59:42;;;;;;;2.63;2.53;;;27.60;46.00;;;;;;5234647;28;20224;-50
2023/09/06 13:02:13;;;;;;;3.27;2.87;;;27.60;46.60;;;;;;5234213;28;20198;-51
2023/09/06 13:04:45;;;;;;;3.07;2.87;;;27.70;45.80;;;;;;5234772;28;20265;-50
2023/09/06 13:07:16;;;;;;;2.97;2.87;;;27.70;45.60;;;;;;5231509;28;20182;-50
2023/09/06 13:09:47;;;;;;;2.67;2.47;;;27.80;45.70;;;;;;5234609;28;20509;-50